createdAt,value
2018-04-01T00:00:27.503Z,9.60
2018-04-01T00:02:55.356Z,8.37
2018-04-01T00:05:22.477Z,9.00
2018-04-01T00:07:49.574Z,8.20
2018-04-01T00:10:16.700Z,7.50
2018-04-01T00:12:43.799Z,8.43
2018-04-01T00:15:10.929Z,8.63
2018-04-01T00:17:38.028Z,7.33
2018-04-01T00:20:05.124Z,8.30
2018-04-01T00:22:32.254Z,9.20
2018-04-01T00:25:00.123Z,9.80
2018-04-01T00:27:28.013Z,9.00
2018-04-01T00:29:55.122Z,9.40
2018-04-01T00:32:23.728Z,9.37
2018-04-01T00:34:51.612Z,9.70
2018-04-01T00:37:18.707Z,8.70
2018-04-01T00:39:45.834Z,7.80
2018-04-01T00:42:12.931Z,8.97
2018-04-01T00:44:40.795Z,7.93
2018-04-01T00:47:07.919Z,6.37
2018-04-01T00:49:35.020Z,8.40
2018-04-01T00:52:02.147Z,8.20
2018-04-01T00:54:30.013Z,7.43
2018-04-01T00:56:57.880Z,8.70
2018-04-01T00:59:25.775Z,10.77
2018-04-01T01:01:52.876Z,11.50
2018-04-01T01:04:20.013Z,13.63
2018-04-01T01:06:47.115Z,13.47
2018-04-01T01:09:14.207Z,9.50
2018-04-01T01:11:41.331Z,13.93
2018-04-01T01:14:08.423Z,12.20
2018-04-01T01:16:35.558Z,13.33
2018-04-01T01:19:02.687Z,13.17
2018-04-01T01:21:29.789Z,14.50
2018-04-01T01:23:57.679Z,15.17
2018-04-01T01:26:24.779Z,11.43
2018-04-01T01:28:51.911Z,14.20
2018-04-01T01:31:19.019Z,13.87
2018-04-01T01:33:46.116Z,12.40
2018-04-01T01:36:13.232Z,12.60
2018-04-01T01:38:40.328Z,12.83
2018-04-01T01:41:07.457Z,12.17
2018-04-01T01:43:34.548Z,11.67
2018-04-01T01:46:01.640Z,10.50
2018-04-01T01:48:28.779Z,11.50
2018-04-01T01:50:55.880Z,11.33
2018-04-01T01:53:23.000Z,10.97
2018-04-01T01:55:50.093Z,11.70
2018-04-01T01:58:17.991Z,10.00
2018-04-01T02:00:45.088Z,10.20
2018-04-01T02:03:12.188Z,10.43
2018-04-01T02:05:39.308Z,10.07
2018-04-01T02:08:07.176Z,11.10
2018-04-01T02:10:34.344Z,9.83
2018-04-01T02:13:01.440Z,8.77
2018-04-01T02:15:28.552Z,10.03
2018-04-01T02:17:55.680Z,9.37
2018-04-01T02:20:23.548Z,9.47
2018-04-01T02:22:51.446Z,9.43
2018-04-01T02:25:18.545Z,10.70
2018-04-01T02:27:46.418Z,9.43
2018-04-01T02:30:13.533Z,7.77
2018-04-01T02:32:40.628Z,8.60
2018-04-01T02:35:08.529Z,9.63
2018-04-01T02:37:35.629Z,9.50
2018-04-01T02:40:02.724Z,9.00
2018-04-01T02:42:29.872Z,8.50
2018-04-01T02:44:56.972Z,10.37
2018-04-01T02:47:24.077Z,9.07
2018-04-01T02:49:51.214Z,8.20
2018-04-01T02:52:18.364Z,8.67
2018-04-01T02:54:45.572Z,9.10
2018-04-01T02:57:13.452Z,10.10
2018-04-01T02:59:41.348Z,8.67
2018-04-01T03:02:08.454Z,8.10
2018-04-01T03:04:35.567Z,9.07
2018-04-01T03:07:02.703Z,8.70
2018-04-01T03:09:29.796Z,9.27
2018-04-01T03:11:56.948Z,7.63
2018-04-01T03:14:24.209Z,8.20
2018-04-01T03:16:51.339Z,7.93
2018-04-01T03:19:18.700Z,8.90
2018-04-01T03:21:46.639Z,8.83
2018-04-01T03:24:13.813Z,8.30
2018-04-01T03:26:41.044Z,8.30
2018-04-01T03:29:08.188Z,8.60
2018-04-01T03:31:35.286Z,8.90
2018-04-01T03:34:02.375Z,9.17
2018-04-01T03:36:29.491Z,8.00
2018-04-01T03:38:57.360Z,8.50
2018-04-01T03:41:25.257Z,8.47
2018-04-01T03:43:52.352Z,7.50
2018-04-01T03:46:20.965Z,7.03
2018-04-01T03:48:48.860Z,8.03
2018-04-01T03:51:15.948Z,8.63
2018-04-01T03:53:43.846Z,9.00
2018-04-01T03:56:11.708Z,10.03
2018-04-01T03:58:39.612Z,10.00
2018-04-01T04:01:06.714Z,7.37
2018-04-01T04:03:34.576Z,9.70
2018-04-01T04:06:01.699Z,10.03
2018-04-01T04:08:28.792Z,9.90
2018-04-01T04:10:56.680Z,10.00
2018-04-01T04:13:23.779Z,10.73
2018-04-01T04:15:50.900Z,9.57
2018-04-01T04:18:17.995Z,9.60
2018-04-01T04:20:45.892Z,9.20
2018-04-01T04:23:12.988Z,10.00
2018-04-01T04:25:40.092Z,10.30
2018-04-01T04:28:07.216Z,8.50
2018-04-01T04:30:35.083Z,9.80
2018-04-01T04:33:02.978Z,10.77
2018-04-01T04:35:30.076Z,10.77
2018-04-01T04:37:57.179Z,7.60
2018-04-01T04:40:24.301Z,8.80
2018-04-01T04:42:52.195Z,9.07
2018-04-01T04:45:19.296Z,10.50
2018-04-01T04:47:46.391Z,10.20
2018-04-01T04:50:13.503Z,8.67
2018-04-01T04:52:40.604Z,9.00
2018-04-01T04:55:07.730Z,9.73
2018-04-01T04:57:34.827Z,10.57
2018-04-01T05:00:01.922Z,10.50
2018-04-01T05:02:29.052Z,7.73
2018-04-01T05:04:56.924Z,10.07
2018-04-01T05:07:24.811Z,9.73
2018-04-01T05:09:51.917Z,10.30
2018-04-01T05:12:19.037Z,9.93
2018-04-01T05:14:46.132Z,9.73
2018-04-01T05:17:14.020Z,10.10
2018-04-01T05:19:41.124Z,10.83
2018-04-01T05:22:08.245Z,10.70
2018-04-01T05:24:35.340Z,10.57
2018-04-01T05:27:02.435Z,10.70
2018-04-01T05:29:29.559Z,10.90
2018-04-01T05:31:57.427Z,10.37
2018-04-01T05:34:25.321Z,12.40
2018-04-01T05:36:52.482Z,10.17
2018-04-01T05:39:19.589Z,12.00
2018-04-01T05:41:47.479Z,10.03
2018-04-01T05:44:14.571Z,9.03
2018-04-01T05:46:41.704Z,12.10
2018-04-01T05:49:08.813Z,7.97
2018-04-01T05:51:35.966Z,10.97
2018-04-01T05:54:03.836Z,8.93
2018-04-01T05:56:30.935Z,9.63
2018-04-01T05:58:58.820Z,7.37
2018-04-01T06:01:26.685Z,10.50
2018-04-01T06:03:53.812Z,9.93
2018-04-01T06:06:20.905Z,10.77
2018-04-01T06:08:48.772Z,10.33
2018-04-01T06:11:16.666Z,7.50
2018-04-01T06:13:43.776Z,10.33
2018-04-01T06:16:11.672Z,9.10
2018-04-01T06:18:38.764Z,9.30
2018-04-01T06:21:06.663Z,8.87
2018-04-01T06:23:34.684Z,12.00
2018-04-01T06:26:01.779Z,9.20
2018-04-01T06:28:29.695Z,11.40
2018-04-01T06:30:56.796Z,10.27
2018-04-01T06:33:25.604Z,11.57
2018-04-01T06:35:54.757Z,10.20
2018-04-01T06:38:22.104Z,10.40
2018-04-01T06:40:49.611Z,9.17
2018-04-01T06:43:16.909Z,9.70
2018-04-01T06:45:44.176Z,9.07
2018-04-01T06:48:13.053Z,10.23
2018-04-01T06:50:40.415Z,8.80
2018-04-01T06:53:08.488Z,9.33
2018-04-01T06:55:35.833Z,9.50
2018-04-01T06:58:02.952Z,9.17
2018-04-01T07:00:30.042Z,9.50
2018-04-01T07:02:57.176Z,9.83
2018-04-01T07:05:24.420Z,8.33
2018-04-01T07:07:51.510Z,8.20
2018-04-01T07:10:19.679Z,8.73
2018-04-01T07:12:46.777Z,8.70
2018-04-01T07:15:13.896Z,8.60
2018-04-01T07:17:41.764Z,8.87
2018-04-01T07:20:09.668Z,7.53
2018-04-01T07:22:36.772Z,8.33
2018-04-01T07:25:04.660Z,8.47
2018-04-01T07:27:31.843Z,7.77
2018-04-01T07:29:58.978Z,9.43
2018-04-01T07:32:26.095Z,8.47
2018-04-01T07:34:53.960Z,10.07
2018-04-01T07:37:21.872Z,8.20
2018-04-01T07:39:48.967Z,5.47
2018-04-01T07:42:16.906Z,8.70
2018-04-01T07:44:43.980Z,6.77
2018-04-01T07:47:11.077Z,7.73
2018-04-01T07:49:38.206Z,9.77
2018-04-01T07:52:05.311Z,8.30
2018-04-01T07:54:33.201Z,8.07
2018-04-01T07:57:01.068Z,9.67
2018-04-01T07:59:28.933Z,9.00
2018-04-01T08:01:56.816Z,9.37
2018-04-01T08:04:24.685Z,8.33
2018-04-01T08:06:52.176Z,9.40
2018-04-01T08:09:19.542Z,8.80
2018-04-01T08:11:49.220Z,8.47
2018-04-01T08:14:16.807Z,10.23
2018-04-01T08:16:44.073Z,7.93
2018-04-01T08:19:11.195Z,10.00
2018-04-01T08:21:38.293Z,7.73
2018-04-01T08:24:05.484Z,9.27
2018-04-01T08:26:32.582Z,8.60
2018-04-01T08:28:59.706Z,9.40
2018-04-01T08:31:26.808Z,9.20
2018-04-01T08:33:54.668Z,7.40
2018-04-01T08:36:22.555Z,5.60
2018-04-01T08:38:49.655Z,6.00
2018-04-01T08:41:17.007Z,7.10
2018-04-01T08:43:44.314Z,7.07
2018-04-01T08:46:11.615Z,7.00
2018-04-01T08:48:38.949Z,6.57
2018-04-01T08:51:06.323Z,6.47
2018-04-01T08:53:33.677Z,7.20
2018-04-01T08:56:00.979Z,6.93
2018-04-01T08:58:28.382Z,7.43
2018-04-01T09:00:55.741Z,6.63
2018-04-01T09:03:23.602Z,7.00
2018-04-01T09:05:50.859Z,6.47
2018-04-01T09:08:18.219Z,6.27
2018-04-01T09:10:45.575Z,7.53
2018-04-01T09:13:14.307Z,7.37
2018-04-01T09:15:41.428Z,5.23
2018-04-01T09:18:08.658Z,6.50
2018-04-01T09:20:35.796Z,7.53
2018-04-01T09:23:03.046Z,6.47
2018-04-01T09:25:30.136Z,5.30
2018-04-01T09:27:58.024Z,5.53
2018-04-01T09:30:25.631Z,5.20
2018-04-01T09:32:53.668Z,5.80
2018-04-01T09:35:20.764Z,6.50
2018-04-01T09:37:48.711Z,5.87
2018-04-01T09:40:17.332Z,8.93
2018-04-01T09:42:44.430Z,7.63
2018-04-01T09:45:11.548Z,8.00
2018-04-01T09:47:39.416Z,7.60
2018-04-01T09:50:07.322Z,6.53
2018-04-01T09:52:34.495Z,8.73
2018-04-01T09:55:01.636Z,7.57
2018-04-01T09:57:28.736Z,7.83
2018-04-01T09:59:56.603Z,7.40
2018-04-01T10:02:24.990Z,9.23
2018-04-01T10:05:09.351Z,10.00
2018-04-01T10:07:36.937Z,8.30
2018-04-01T10:10:04.522Z,9.57
2018-04-01T10:12:32.149Z,8.90
2018-04-01T10:14:59.742Z,7.40
2018-04-01T10:17:27.350Z,6.80
2018-04-01T10:19:55.041Z,7.47
2018-04-01T10:22:22.661Z,6.87
2018-04-01T10:24:50.360Z,6.60
2018-04-01T10:27:18.006Z,6.63
2018-04-01T10:29:45.620Z,6.40
2018-04-01T10:32:14.358Z,6.50
2018-04-01T10:34:41.969Z,6.60
2018-04-01T10:37:09.556Z,5.63
2018-04-01T10:39:37.176Z,8.30
2018-04-01T10:42:04.768Z,8.10
2018-04-01T10:44:33.118Z,6.13
2018-04-01T10:47:00.736Z,7.23
2018-04-01T10:49:28.335Z,5.70
2018-04-01T10:51:56.716Z,5.80
2018-04-01T10:54:23.819Z,5.50
2018-04-01T10:56:50.945Z,6.70
2018-04-01T10:59:18.804Z,4.40
2018-04-01T11:01:52.257Z,7.20
2018-04-01T11:04:20.179Z,7.30
2018-04-01T11:06:48.044Z,7.40
2018-04-01T11:09:15.936Z,8.20
2018-04-01T11:11:43.032Z,6.60
2018-04-01T11:14:10.163Z,5.93
2018-04-01T11:16:37.255Z,6.60
2018-04-01T11:19:05.741Z,8.43
2018-04-01T11:21:32.885Z,9.90
2018-04-01T11:24:00.749Z,9.73
2018-04-01T11:26:28.799Z,9.40
2018-04-01T11:28:55.955Z,9.40
2018-04-01T11:31:23.303Z,10.73
2018-04-01T11:33:50.405Z,13.73
2018-04-01T11:36:17.533Z,12.63
2018-04-01T11:38:45.402Z,13.53
2018-04-01T11:41:13.301Z,12.07
2018-04-01T11:43:40.399Z,7.50
2018-04-01T11:46:07.500Z,10.63
2018-04-01T11:48:34.640Z,7.27
2018-04-01T11:51:01.746Z,9.67
2018-04-01T11:53:28.891Z,13.30
2018-04-01T11:55:55.990Z,11.43
2018-04-01T11:58:23.120Z,12.23
2018-04-01T12:00:50.215Z,11.50
2018-04-01T12:03:17.309Z,13.00
2018-04-01T12:05:45.195Z,12.67
2018-04-01T12:08:12.309Z,10.57
2018-04-01T12:10:40.248Z,9.03
2018-04-01T12:13:07.349Z,11.50
2018-04-01T12:15:34.471Z,11.10
2018-04-01T12:18:01.571Z,10.47
2018-04-01T12:20:28.700Z,10.57
2018-04-01T12:22:55.800Z,10.67
2018-04-01T12:25:22.894Z,8.60
2018-04-01T12:27:50.010Z,7.13
2018-04-01T12:30:17.115Z,8.17
2018-04-01T12:32:44.231Z,9.33
2018-04-01T12:35:12.090Z,9.33
2018-04-01T12:37:39.979Z,8.90
2018-04-01T12:40:07.075Z,6.27
2018-04-01T12:42:34.174Z,8.60
2018-04-01T12:45:01.296Z,9.67
2018-04-01T12:47:28.401Z,8.53
2018-04-01T12:49:55.591Z,9.90
2018-04-01T12:52:22.680Z,9.60
2018-04-01T12:54:49.854Z,9.73
2018-04-01T12:57:16.990Z,7.70
2018-04-01T12:59:44.108Z,9.77
2018-04-01T13:02:11.988Z,11.30
2018-04-01T13:04:39.086Z,9.90
2018-04-01T13:07:06.214Z,8.70
2018-04-01T13:09:33.312Z,9.50
2018-04-01T13:12:01.214Z,11.17
2018-04-01T13:14:28.308Z,10.10
2018-04-01T13:16:55.462Z,8.70
2018-04-01T13:19:22.753Z,10.17
2018-04-01T13:21:50.378Z,9.53
2018-04-01T13:24:17.536Z,10.20
2018-04-01T13:26:44.726Z,10.23
2018-04-01T13:29:12.075Z,8.73
2018-04-01T13:31:39.195Z,7.40
2018-04-01T13:34:06.325Z,9.40
2018-04-01T13:36:33.478Z,7.97
2018-04-01T13:39:00.571Z,11.10
2018-04-01T13:41:27.683Z,8.57
2018-04-01T13:43:54.781Z,9.37
2018-04-01T13:46:22.328Z,11.43
2018-04-01T13:48:49.430Z,10.80
2018-04-01T13:51:16.875Z,8.07
2018-04-01T13:53:45.636Z,4.87
2018-04-01T13:56:12.732Z,9.63
2018-04-01T13:58:39.857Z,9.20
2018-04-01T14:01:06.962Z,9.87
2018-04-01T14:03:34.104Z,10.87
2018-04-01T14:06:02.355Z,6.23
2018-04-01T14:08:30.247Z,12.50
2018-04-01T14:10:58.135Z,8.50
2018-04-01T14:13:25.223Z,11.03
2018-04-01T14:15:52.355Z,10.87
2018-04-01T14:18:19.468Z,8.97
2018-04-01T14:20:47.367Z,9.50
2018-04-01T14:23:14.500Z,9.50
2018-04-01T14:25:41.600Z,11.20
2018-04-01T14:28:08.728Z,10.23
2018-04-01T14:30:35.834Z,9.00
2018-04-01T14:33:02.959Z,8.57
2018-04-01T14:35:30.047Z,8.83
2018-04-01T14:37:57.184Z,9.10
2018-04-01T14:40:24.288Z,9.67
2018-04-01T14:42:51.383Z,8.97
2018-04-01T14:45:18.568Z,9.23
2018-04-01T14:47:45.670Z,8.23
2018-04-01T14:50:13.616Z,8.63
2018-04-01T14:52:40.713Z,10.30
2018-04-01T14:55:07.854Z,10.00
2018-04-01T14:57:34.951Z,9.30
2018-04-01T15:00:02.064Z,7.47
2018-04-01T15:02:29.192Z,8.33
2018-04-01T15:04:57.097Z,10.30
2018-04-01T15:07:24.217Z,9.80
2018-04-01T15:09:51.316Z,7.10
2018-04-01T15:12:18.458Z,12.73
2018-04-01T15:14:45.559Z,12.40
2018-04-01T15:17:12.651Z,8.40
2018-04-01T15:19:39.782Z,9.87
2018-04-01T15:22:06.886Z,8.97
2018-04-01T15:24:34.779Z,12.77
2018-04-01T15:27:01.892Z,10.47
2018-04-01T15:29:29.024Z,10.03
2018-04-01T15:31:56.132Z,9.77
2018-04-01T15:34:23.224Z,9.37
2018-04-01T15:36:50.343Z,8.27
2018-04-01T15:39:17.436Z,9.10
2018-04-01T15:41:45.324Z,10.00
2018-04-01T15:44:13.184Z,9.67
2018-04-01T15:46:41.078Z,7.73
2018-04-01T15:49:08.185Z,8.43
2018-04-01T15:51:35.308Z,8.90
2018-04-01T15:54:02.404Z,9.27
2018-04-01T15:56:30.296Z,8.03
2018-04-01T15:58:57.396Z,7.37
2018-04-01T16:01:24.516Z,7.80
2018-04-01T16:03:51.663Z,6.17
2018-04-01T16:06:18.760Z,7.17
2018-04-01T16:08:46.698Z,8.70
2018-04-01T16:11:13.796Z,7.57
2018-04-01T16:13:40.920Z,3.90
2018-04-01T16:16:08.017Z,4.20
2018-04-01T16:18:35.105Z,5.00
2018-04-01T16:21:02.223Z,6.30
2018-04-01T16:23:29.341Z,6.60
2018-04-01T16:25:56.471Z,5.67
2018-04-01T16:28:24.461Z,4.10
2018-04-01T16:30:51.604Z,3.60
2018-04-01T16:33:19.920Z,4.13
2018-04-01T16:35:47.965Z,2.77
2018-04-01T16:38:15.059Z,3.17
2018-04-01T16:40:42.189Z,3.50
2018-04-01T16:43:09.280Z,3.60
2018-04-01T16:45:36.392Z,4.00
2018-04-01T16:48:03.523Z,3.80
2018-04-01T16:50:30.628Z,3.00
2018-04-01T16:52:57.745Z,3.17
2018-04-01T16:55:25.010Z,4.47
2018-04-01T16:57:52.144Z,5.27
2018-04-01T17:00:19.243Z,4.30
2018-04-01T17:02:47.138Z,3.60
2018-04-01T17:05:14.239Z,4.23
2018-04-01T17:07:42.111Z,4.53
2018-04-01T17:10:09.240Z,4.20
2018-04-01T17:12:37.113Z,3.90
2018-04-01T17:15:04.244Z,3.93
2018-04-01T17:17:31.364Z,5.20
2018-04-01T17:19:58.504Z,5.10
2018-04-01T17:22:25.606Z,3.93
2018-04-01T17:24:52.735Z,2.87
2018-04-01T17:27:19.840Z,4.50
2018-04-01T17:29:47.713Z,4.23
2018-04-01T17:32:14.836Z,4.47
2018-04-01T17:34:42.709Z,5.10
2018-04-01T17:37:10.606Z,4.83
2018-04-01T17:39:37.704Z,4.30
2018-04-01T17:42:04.841Z,4.10
2018-04-01T17:44:31.939Z,4.20
2018-04-01T17:46:59.799Z,5.40
2018-04-01T17:49:27.815Z,4.13
2018-04-01T17:51:54.922Z,3.77
2018-04-01T17:54:22.807Z,4.50
2018-04-01T17:56:49.900Z,3.57
2018-04-01T17:59:17.025Z,3.97
2018-04-01T18:01:44.113Z,3.83
2018-04-01T18:04:11.224Z,4.10
2018-04-01T18:06:38.340Z,4.00
2018-04-01T18:09:05.428Z,5.30
2018-04-01T18:11:32.545Z,4.40
2018-04-01T18:13:59.641Z,4.30
2018-04-01T18:16:26.771Z,4.93
2018-04-01T18:18:54.063Z,3.70
2018-04-01T18:21:21.396Z,5.30
2018-04-01T18:23:48.506Z,4.90
2018-04-01T18:26:15.637Z,4.70
2018-04-01T18:28:43.503Z,4.70
2018-04-01T18:31:11.362Z,4.60
2018-04-01T18:33:39.250Z,4.77
2018-04-01T18:36:06.379Z,3.17
2018-04-01T18:38:34.272Z,4.57
2018-04-01T18:41:01.373Z,3.50
2018-04-01T18:43:29.256Z,4.70
2018-04-01T18:45:57.128Z,4.50
2018-04-01T18:48:25.017Z,5.50
2018-04-01T18:50:52.117Z,5.30
2018-04-01T18:53:19.245Z,4.57
2018-04-01T18:55:46.344Z,6.00
2018-04-01T18:58:14.237Z,4.80
2018-04-01T19:00:41.346Z,4.63
2018-04-01T19:03:08.472Z,5.83
2018-04-01T19:05:35.564Z,5.10
2018-04-01T19:08:03.431Z,6.87
2018-04-01T19:10:31.312Z,5.07
2018-04-01T19:12:58.401Z,5.10
2018-04-01T19:15:25.524Z,6.23
2018-04-01T19:17:53.121Z,4.90
2018-04-01T19:20:20.716Z,5.90
2018-04-01T19:22:49.093Z,7.00
2018-04-01T19:25:17.452Z,7.80
2018-04-01T19:27:45.069Z,8.20
2018-04-01T19:30:12.677Z,7.00
2018-04-01T19:32:40.296Z,10.90
2018-04-01T19:35:07.929Z,10.80
2018-04-01T19:37:35.532Z,11.13
2018-04-01T19:40:03.195Z,13.33
2018-04-01T19:42:30.782Z,5.77
2018-04-01T19:44:59.147Z,9.70
2018-04-01T19:47:26.759Z,8.07
2018-04-01T19:49:54.382Z,9.67
2018-04-01T19:52:22.765Z,8.13
2018-04-01T19:54:50.346Z,8.57
2018-04-01T19:57:17.964Z,9.17
2018-04-01T19:59:45.549Z,10.90
2018-04-01T20:02:13.948Z,8.37
2018-04-01T20:04:41.535Z,8.53
2018-04-01T20:07:09.151Z,12.10
2018-04-01T20:09:37.575Z,9.90
2018-04-01T20:12:05.172Z,10.97
2018-04-01T20:14:32.797Z,11.97
2018-04-01T20:17:00.488Z,13.53
2018-04-01T20:19:28.892Z,12.67
2018-04-01T20:24:29.048Z,11.13
2018-04-01T20:26:56.647Z,10.30
2018-04-01T20:29:24.244Z,11.80
2018-04-01T20:31:51.868Z,13.07
2018-04-01T20:34:19.475Z,15.93
2018-04-01T20:36:47.873Z,20.10
2018-04-01T20:39:15.505Z,15.83
2018-04-01T20:41:43.131Z,17.10
2018-04-01T20:44:10.720Z,20.60
2018-04-01T20:46:38.339Z,22.80
2018-04-01T20:49:08.301Z,27.40
2018-04-01T20:51:36.143Z,25.50
2018-04-01T20:54:03.726Z,21.87
2018-04-01T20:56:31.372Z,23.03
2018-04-01T20:58:59.577Z,22.10
2018-04-01T21:01:27.290Z,27.63
2018-04-01T21:03:54.931Z,24.30
2018-04-01T21:06:22.734Z,23.60
2018-04-01T21:08:50.602Z,23.10
2018-04-01T21:11:18.461Z,22.33
2018-04-01T21:13:46.333Z,27.30
2018-04-01T21:16:14.080Z,20.83
2018-04-01T21:18:41.810Z,20.67
2018-04-01T21:21:09.584Z,27.43
2018-04-01T21:23:37.392Z,22.37
2018-04-01T21:26:05.023Z,22.60
2018-04-01T21:28:32.734Z,21.73
2018-04-01T21:31:00.365Z,20.23
2018-04-01T21:33:27.952Z,19.37
2018-04-01T21:35:55.682Z,22.33
2018-04-01T21:38:23.281Z,13.17
2018-04-01T21:40:50.877Z,19.73
2018-04-01T21:43:18.576Z,18.40
2018-04-01T21:45:46.614Z,19.70
2018-04-01T21:48:14.280Z,18.80
2018-04-01T21:50:41.883Z,18.00
2018-04-01T21:53:09.508Z,19.83
2018-04-01T21:55:37.099Z,17.97
2018-04-01T21:58:05.386Z,18.10
2018-04-01T22:00:33.133Z,15.90
2018-04-01T22:03:00.818Z,18.37
2018-04-01T22:05:28.431Z,20.77
2018-04-01T22:07:56.055Z,17.27
2018-04-01T22:10:24.562Z,18.37
2018-04-01T22:12:52.458Z,18.50
2018-04-01T22:15:20.123Z,17.77
2018-04-01T22:17:48.712Z,21.73
2018-04-01T22:20:17.751Z,17.10
2018-04-01T22:22:58.056Z,18.40
2018-04-01T22:25:25.652Z,17.27
2018-04-01T22:27:54.065Z,19.03
2018-04-01T22:30:21.676Z,17.27
2018-04-01T22:32:49.583Z,18.60
2018-04-01T22:35:17.972Z,18.17
2018-04-01T22:37:45.559Z,19.13
2018-04-01T22:40:13.176Z,21.93
2018-04-01T22:42:41.544Z,17.70
2018-04-01T22:45:09.928Z,22.00
2018-04-01T22:47:38.284Z,17.90
2018-04-01T22:50:06.672Z,22.97
2018-04-01T22:52:34.271Z,18.07
2018-04-01T22:55:01.884Z,20.20
2018-04-01T22:57:31.010Z,21.93
2018-04-01T22:59:59.383Z,17.70
2018-04-01T23:02:27.769Z,19.50
2018-04-01T23:04:56.133Z,22.73
2018-04-01T23:07:24.550Z,23.30
2018-04-01T23:09:52.144Z,20.80
2018-04-01T23:12:19.760Z,20.70
2018-04-01T23:14:47.360Z,18.80
2018-04-01T23:17:14.983Z,18.20
2018-04-01T23:19:42.588Z,19.10
2018-04-01T23:22:10.184Z,19.47
2018-04-01T23:24:38.568Z,16.20
2018-04-01T23:27:06.923Z,21.80
2018-04-01T23:29:34.693Z,19.97
2018-04-01T23:32:02.301Z,17.27
2018-04-01T23:34:29.927Z,18.37
2018-04-01T23:36:58.287Z,18.47
2018-04-01T23:39:25.943Z,16.63
2018-04-01T23:41:53.535Z,17.60
2018-04-01T23:44:21.900Z,16.50
2018-04-01T23:46:50.296Z,18.10
2018-04-01T23:49:17.892Z,18.53
2018-04-01T23:51:45.520Z,15.13
2018-04-01T23:54:13.120Z,17.30
2018-04-01T23:56:40.747Z,16.93
2018-04-01T23:59:08.393Z,17.40
